Time;durP1;ratioP1;P1;durP2;ratioP2;P2;SDS_P1;SDS_P2;PMS_P1;PMS_P2;Temp;Humidity;BMP_temperature;BMP_pressure;BME280_temperature;BME280_humidity;BME280_pressure;Samples;Min_cycle;Max_cycle;Signal;HPM_P1;HPM_P2
2023/03/14 00:00:31;;;;;;;1.80;0.80;;;11.00;99.90;;;;;;10315389;28;20237;-74
2023/03/14 00:05:34;;;;;;;2.30;0.83;;;11.10;99.90;;;;;;10308968;28;20226;-74
2023/03/14 00:10:36;;;;;;;1.43;0.90;;;11.10;99.90;;;;;;10305193;28;20240;-73
2023/03/14 00:15:36;;;;;;;1.27;0.73;;;11.20;99.90;;;;;;10325917;28;20226;-74
2023/03/14 00:20:37;;;;;;;0.90;0.80;;;11.10;99.90;;;;;;10315766;28;20218;-74
2023/03/14 00:25:37;;;;;;;1.80;0.93;;;11.10;99.90;;;;;;10315252;28;20569;-74
2023/03/14 00:30:38;;;;;;;2.47;1.27;;;11.10;99.90;;;;;;10312355;28;20217;-75
2023/03/14 00:35:38;;;;;;;2.83;0.93;;;11.10;99.90;;;;;;10304242;28;20268;-73
2023/03/14 00:40:39;;;;;;;2.47;1.00;;;11.10;99.90;;;;;;10308448;28;20218;-73
2023/03/14 00:45:40;;;;;;;1.13;0.90;;;11.10;99.90;;;;;;10307767;28;20221;-72
2023/03/14 00:50:40;;;;;;;1.47;0.90;;;11.00;99.90;;;;;;10314394;28;20861;-72
2023/03/14 00:55:43;;;;;;;3.27;1.17;;;11.00;99.90;;;;;;10307535;28;20230;-72
2023/03/14 01:00:44;;;;;;;3.47;1.10;;;10.90;99.90;;;;;;10314360;28;20256;-73
2023/03/14 01:05:45;;;;;;;3.20;0.80;;;10.90;99.90;;;;;;10307282;28;20261;-73
2023/03/14 01:10:45;;;;;;;1.90;1.00;;;10.90;99.90;;;;;;10307813;28;20700;-73
2023/03/14 01:15:46;;;;;;;1.73;0.77;;;10.80;99.90;;;;;;10306434;28;20250;-73
2023/03/14 01:20:46;;;;;;;1.20;1.00;;;10.80;99.90;;;;;;10314524;28;20291;-73
2023/03/14 01:25:47;;;;;;;3.87;1.20;;;10.80;99.90;;;;;;10310131;28;20221;-74
2023/03/14 01:30:47;;;;;;;1.77;1.10;;;10.80;99.90;;;;;;10310424;28;20272;-72
2023/03/14 01:35:50;;;;;;;3.33;1.00;;;10.80;99.90;;;;;;10318657;28;20591;-72
2023/03/14 01:40:50;;;;;;;2.40;0.90;;;10.80;99.90;;;;;;10305672;28;20214;-71
2023/03/14 01:46:06;;;;;;;2.10;0.93;;;10.80;99.90;;;;;;10307298;28;20225;-73
2023/03/14 01:51:10;;;;;;;1.77;0.90;;;10.90;99.90;;;;;;10309516;28;20222;-73
2023/03/14 01:56:14;;;;;;;2.43;1.00;;;10.90;99.90;;;;;;10308911;28;20245;-72
2023/03/14 02:01:17;;;;;;;3.30;1.03;;;11.00;99.90;;;;;;10318696;28;20315;-72
2023/03/14 02:06:24;;;;;;;1.83;0.97;;;11.00;99.90;;;;;;10317110;28;20257;-74
2023/03/14 02:11:29;;;;;;;3.07;1.00;;;11.00;99.90;;;;;;10332542;28;20565;-73
2023/03/14 02:16:30;;;;;;;4.33;1.40;;;11.10;99.90;;;;;;10315638;28;20218;-73
2023/03/14 02:21:51;;;;;;;1.97;1.13;;;11.10;99.90;;;;;;10311797;28;20249;-74
2023/03/14 02:27:08;;;;;;;2.83;1.10;;;11.10;99.90;;;;;;10307415;28;20230;-72
2023/03/14 02:32:09;;;;;;;4.90;1.17;;;11.10;99.90;;;;;;10315714;28;20206;-74
2023/03/14 02:37:10;;;;;;;5.20;1.50;;;11.10;99.90;;;;;;10315927;28;20223;-72
2023/03/14 02:42:13;;;;;;;2.97;0.87;;;11.10;99.90;;;;;;10308835;28;20219;-72
2023/03/14 02:47:14;;;;;;;4.57;1.27;;;11.20;99.90;;;;;;10315671;28;20713;-73
2023/03/14 02:52:14;;;;;;;3.87;1.17;;;11.20;99.90;;;;;;10322815;28;20276;-73
2023/03/14 02:57:15;;;;;;;3.50;1.00;;;11.20;99.90;;;;;;10325672;28;20225;-72
2023/03/14 03:02:15;;;;;;;3.27;1.03;;;11.10;99.90;;;;;;10315134;28;20221;-74
2023/03/14 03:07:16;;;;;;;3.73;1.17;;;11.10;99.90;;;;;;10307112;28;20317;-74
2023/03/14 03:12:17;;;;;;;4.27;1.10;;;11.10;99.90;;;;;;10321285;28;20218;-72
2023/03/14 03:17:17;;;;;;;2.50;1.07;;;11.10;99.90;;;;;;10307285;28;20218;-71
2023/03/14 03:22:18;;;;;;;5.00;1.37;;;11.00;99.90;;;;;;10314422;28;20614;-73
2023/03/14 03:27:18;;;;;;;2.80;1.00;;;11.00;99.90;;;;;;10316094;28;20239;-73
2023/03/14 03:32:19;;;;;;;3.83;1.40;;;11.00;99.90;;;;;;10307838;28;20210;-76
2023/03/14 03:37:19;;;;;;;3.80;1.37;;;10.90;99.90;;;;;;10323149;28;20612;-76
2023/03/14 03:42:20;;;;;;;4.57;1.40;;;10.90;99.90;;;;;;10318403;28;20261;-75
2023/03/14 03:47:20;;;;;;;3.07;0.87;;;10.90;99.90;;;;;;10321840;28;20225;-75
2023/03/14 03:52:21;;;;;;;4.47;1.30;;;10.90;99.90;;;;;;10310143;28;20297;-75
2023/03/14 03:57:25;;;;;;;2.97;1.20;;;10.90;99.90;;;;;;10306751;28;20250;-74
2023/03/14 04:02:25;;;;;;;3.40;1.47;;;11.00;99.90;;;;;;10312173;28;20246;-72
2023/03/14 04:07:26;;;;;;;6.23;1.33;;;11.00;99.90;;;;;;10322527;28;20681;-73
2023/03/14 04:12:29;;;;;;;5.67;1.37;;;11.00;99.90;;;;;;10313455;28;20218;-73
2023/03/14 04:17:30;;;;;;;3.87;1.37;;;11.10;99.90;;;;;;10310966;28;20217;-73
2023/03/14 04:22:30;;;;;;;5.80;1.10;;;11.10;99.90;;;;;;10313635;28;20222;-74
2023/03/14 04:27:34;;;;;;;4.23;1.00;;;11.10;99.90;;;;;;10309199;28;20222;-74
2023/03/14 04:32:34;;;;;;;5.70;1.30;;;11.10;99.90;;;;;;10318493;28;20702;-73
2023/03/14 04:37:35;;;;;;;4.10;1.10;;;11.10;99.90;;;;;;10306832;28;20218;-75
2023/03/14 04:42:36;;;;;;;4.83;1.30;;;11.10;99.90;;;;;;10311954;28;20276;-72
2023/03/14 04:47:37;;;;;;;3.10;0.90;;;11.20;99.90;;;;;;10312289;28;20320;-73
2023/03/14 04:52:37;;;;;;;4.00;1.03;;;11.20;99.90;;;;;;10319532;28;20210;-74
2023/03/14 04:57:38;;;;;;;1.63;0.90;;;11.20;99.90;;;;;;10308236;28;20248;-72
2023/03/14 05:02:38;;;;;;;2.97;1.03;;;11.20;99.90;;;;;;10307384;28;20221;-73
2023/03/14 05:07:39;;;;;;;2.03;0.90;;;11.20;99.90;;;;;;10312477;28;20276;-73
2023/03/14 05:12:39;;;;;;;3.23;1.20;;;11.20;99.90;;;;;;10310893;28;20210;-73
2023/03/14 05:17:40;;;;;;;2.67;1.30;;;11.10;99.90;;;;;;10317330;28;20704;-73
2023/03/14 05:22:41;;;;;;;2.10;0.90;;;11.00;99.90;;;;;;10310958;28;20595;-75
2023/03/14 05:27:41;;;;;;;3.00;0.87;;;11.00;99.90;;;;;;10334685;28;20283;-71
2023/03/14 05:32:42;;;;;;;3.00;0.83;;;11.00;99.90;;;;;;10302424;28;20263;-73
2023/03/14 05:37:42;;;;;;;4.23;1.07;;;11.00;99.90;;;;;;10319956;28;20233;-73
2023/03/14 05:42:43;;;;;;;3.20;1.10;;;11.00;99.90;;;;;;10333778;28;20306;-72
2023/03/14 05:47:43;;;;;;;4.20;1.13;;;11.10;99.90;;;;;;10342404;28;20581;-73
2023/03/14 05:52:44;;;;;;;2.00;1.00;;;11.10;99.90;;;;;;10313881;28;20218;-74
2023/03/14 05:57:44;;;;;;;4.63;1.20;;;11.10;99.90;;;;;;10318161;28;20233;-73
2023/03/14 06:02:45;;;;;;;3.73;1.20;;;11.10;99.90;;;;;;10327692;28;20229;-73
2023/03/14 06:07:45;;;;;;;2.37;0.70;;;11.10;99.90;;;;;;10313744;28;20758;-72
2023/03/14 06:12:46;;;;;;;1.67;0.90;;;11.10;99.90;;;;;;10313540;28;20268;-72
2023/03/14 06:17:47;;;;;;;3.43;1.10;;;11.10;99.90;;;;;;10319718;28;20669;-72
2023/03/14 06:22:47;;;;;;;2.03;1.00;;;11.10;99.90;;;;;;10313566;28;20244;-73
2023/03/14 06:27:48;;;;;;;5.47;1.50;;;11.10;99.90;;;;;;10320083;28;20772;-73
2023/03/14 06:32:48;;;;;;;6.27;2.30;;;11.20;99.90;;;;;;10319625;28;20226;-73
2023/03/14 06:37:49;;;;;;;1.37;1.07;;;11.20;99.90;;;;;;10316735;28;20238;-75
2023/03/14 06:42:50;;;;;;;2.57;1.30;;;11.20;99.90;;;;;;10328272;28;20226;-72
2023/03/14 06:47:50;;;;;;;5.77;2.00;;;11.20;99.90;;;;;;10324860;28;20241;-71
2023/03/14 06:52:51;;;;;;;5.73;1.67;;;11.20;99.90;;;;;;10307169;28;20234;-71
2023/03/14 06:57:51;;;;;;;3.43;1.23;;;11.20;99.90;;;;;;10319978;28;20222;-71
2023/03/14 07:02:52;;;;;;;4.07;1.07;;;11.20;99.90;;;;;;10307469;28;20317;-71
2023/03/14 07:07:53;;;;;;;2.60;0.80;;;11.30;99.90;;;;;;10310874;28;20350;-71
2023/03/14 07:12:53;;;;;;;2.67;0.90;;;11.30;99.90;;;;;;10312449;28;20664;-71
2023/03/14 07:17:54;;;;;;;2.13;0.80;;;11.40;99.90;;;;;;10309581;28;20277;-71
2023/03/14 07:22:54;;;;;;;5.07;0.83;;;11.50;99.90;;;;;;10318560;28;20288;-70
2023/03/14 07:27:58;;;;;;;3.53;1.07;;;11.50;99.90;;;;;;10308490;28;20227;-71
2023/03/14 07:32:58;;;;;;;5.20;0.83;;;11.60;99.90;;;;;;10322815;28;20210;-71
2023/03/14 07:37:59;;;;;;;2.40;0.60;;;11.60;99.90;;;;;;10313838;28;20542;-72
2023/03/14 07:43:00;;;;;;;2.00;0.57;;;11.80;99.90;;;;;;10318482;28;20234;-71
2023/03/14 07:48:01;;;;;;;3.37;0.67;;;11.80;99.90;;;;;;10305505;28;20231;-70
2023/03/14 07:53:02;;;;;;;3.23;0.60;;;11.80;99.90;;;;;;10319732;28;20363;-70
2023/03/14 07:58:03;;;;;;;6.63;0.90;;;11.90;99.90;;;;;;10317081;28;20226;-71
2023/03/14 08:03:03;;;;;;;4.33;0.60;;;12.00;99.90;;;;;;10312634;28;20233;-70
2023/03/14 08:08:07;;;;;;;1.77;0.70;;;12.00;99.90;;;;;;10306094;28;20230;-70
2023/03/14 08:13:08;;;;;;;3.73;0.77;;;12.10;99.90;;;;;;10311368;28;20281;-71
2023/03/14 08:18:09;;;;;;;1.67;0.57;;;12.20;99.90;;;;;;10311977;28;20867;-71
2023/03/14 08:23:10;;;;;;;2.90;0.60;;;12.20;99.90;;;;;;10311505;28;20296;-71
2023/03/14 08:28:10;;;;;;;1.77;0.50;;;12.50;99.90;;;;;;10315526;28;20225;-71
2023/03/14 08:33:11;;;;;;;1.07;0.50;;;12.60;99.90;;;;;;10304171;28;20261;-70
2023/03/14 08:38:12;;;;;;;3.30;0.60;;;12.50;99.90;;;;;;10310348;28;20214;-71
2023/03/14 08:43:12;;;;;;;1.63;0.43;;;12.40;99.90;;;;;;10304128;28;20314;-71
2023/03/14 08:48:13;;;;;;;3.23;0.60;;;12.60;99.90;;;;;;10319682;28;20217;-71
2023/03/14 08:53:13;;;;;;;1.73;0.47;;;13.20;99.90;;;;;;10302664;28;20582;-70
2023/03/14 08:58:17;;;;;;;0.50;0.20;;;16.00;99.90;;;;;;10310817;28;20279;-71
2023/03/14 09:03:17;;;;;;;3.10;0.50;;;16.90;99.90;;;;;;10311117;28;20226;-71
2023/03/14 09:08:18;;;;;;;1.93;0.53;;;15.80;99.90;;;;;;10302993;28;20233;-72
2023/03/14 09:13:18;;;;;;;0.30;0.30;;;14.70;99.90;;;;;;10309837;28;20214;-71
2023/03/14 09:18:19;;;;;;;1.03;0.23;;;14.10;99.90;;;;;;10302560;28;20318;-71
2023/03/14 09:23:19;;;;;;;0.93;0.40;;;14.40;99.90;;;;;;10302668;28;20998;-71
2023/03/14 09:28:20;;;;;;;1.27;0.30;;;15.00;99.90;;;;;;10302289;28;20250;-71
2023/03/14 09:33:21;;;;;;;0.97;0.37;;;15.30;99.90;;;;;;10309786;28;20235;-71
2023/03/14 09:38:23;;;;;;;0.60;0.30;;;15.20;99.90;;;;;;10312547;28;20586;-71
2023/03/14 09:43:26;;;;;;;0.73;0.30;;;14.80;99.90;;;;;;10325121;28;20221;-70
2023/03/14 09:48:29;;;;;;;0.20;0.20;;;14.80;99.90;;;;;;10300983;28;20752;-71
2023/03/14 09:53:39;;;;;;;2.40;0.30;;;14.40;99.90;;;;;;10301686;28;20316;-70
2023/03/14 09:58:43;;;;;;;0.47;0.20;;;14.00;99.90;;;;;;10309535;28;20295;-71
2023/03/14 10:03:46;;;;;;;2.27;0.60;;;13.90;99.90;;;;;;10309132;28;20245;-71
2023/03/14 10:08:46;;;;;;;2.20;0.50;;;13.90;99.90;;;;;;10310123;28;20240;-72
2023/03/14 10:14:08;;;;;;;2.03;0.33;;;13.70;99.90;;;;;;10305043;28;20574;-71
2023/03/14 10:19:15;;;;;;;3.50;0.33;;;13.70;99.90;;;;;;10309341;28;20596;-71
2023/03/14 10:24:21;;;;;;;2.07;0.57;;;13.80;99.90;;;;;;10304102;28;20776;-71
2023/03/14 10:29:22;;;;;;;0.80;0.33;;;13.80;99.90;;;;;;10316073;28;20604;-70
2023/03/14 10:34:26;;;;;;;0.83;0.40;;;13.70;99.90;;;;;;10316191;28;20212;-71
2023/03/14 10:39:32;;;;;;;1.23;0.37;;;13.60;99.90;;;;;;10309501;28;20250;-71
2023/03/14 10:44:34;;;;;;;1.27;0.30;;;13.50;99.90;;;;;;10308198;28;20218;-71
2023/03/14 10:49:37;;;;;;;0.77;0.40;;;13.30;99.90;;;;;;10326348;28;20567;-70
2023/03/14 10:54:37;;;;;;;2.37;0.33;;;13.20;99.90;;;;;;10310625;28;20230;-71
2023/03/14 10:59:42;;;;;;;0.87;0.40;;;13.00;99.90;;;;;;10311743;28;20231;-71
2023/03/14 11:05:07;;;;;;;0.53;0.30;;;13.00;99.90;;;;;;10311098;28;20226;-70
2023/03/14 11:10:32;;;;;;;2.30;0.57;;;12.90;99.90;;;;;;10307830;28;20230;-70
2023/03/14 11:15:45;;;;;;;0.73;0.43;;;12.90;99.90;;;;;;10308419;28;20590;-71
2023/03/14 11:21:14;;;;;;;0.20;0.20;;;12.80;99.90;;;;;;10311034;28;20228;-71
2023/03/14 11:26:37;;;;;;;1.07;0.33;;;12.90;99.90;;;;;;10305950;28;20285;-71
2023/03/14 11:31:43;;;;;;;0.33;0.20;;;12.80;99.90;;;;;;10313404;28;20222;-71
2023/03/14 11:37:12;;;;;;;0.33;0.20;;;12.60;99.90;;;;;;10316781;28;20238;-71
2023/03/14 11:42:16;;;;;;;0.50;0.30;;;12.60;99.90;;;;;;10308606;28;20284;-70
2023/03/14 11:47:24;;;;;;;2.30;0.30;;;12.70;99.90;;;;;;10317758;28;20254;-71
2023/03/14 11:52:59;;;;;;;0.50;0.30;;;12.90;99.90;;;;;;10311954;28;20642;-70
2023/03/14 11:58:17;;;;;;;1.23;0.30;;;13.20;99.90;;;;;;10297659;28;20280;-72
2023/03/14 12:03:50;;;;;;;0.43;0.30;;;13.30;99.90;;;;;;10305168;28;20277;-71
2023/03/14 12:08:54;;;;;;;1.77;0.77;;;13.20;99.90;;;;;;10307559;28;20237;-71
2023/03/14 12:13:54;;;;;;;2.80;0.43;;;12.90;99.90;;;;;;10323998;28;20215;-71
2023/03/14 12:18:55;;;;;;;1.00;0.20;;;12.40;99.90;;;;;;10316582;28;20230;-70
2023/03/14 12:23:57;;;;;;;0.43;0.10;;;12.30;99.90;;;;;;10307078;28;20225;-70
2023/03/14 12:28:58;;;;;;;0.37;0.20;;;12.10;99.90;;;;;;10311158;28;20708;-71
2023/03/14 12:34:22;;;;;;;0.53;0.53;;;11.90;99.90;;;;;;10309739;28;20234;-70
2023/03/14 12:39:56;;;;;;;1.03;0.10;;;12.10;99.90;;;;;;10317509;28;20218;-70
2023/03/14 12:45:31;;;;;;;0.40;0.20;;;12.00;99.90;;;;;;10319284;28;20708;-70
2023/03/14 12:50:36;;;;;;;0.83;0.20;;;12.30;99.90;;;;;;10305123;28;20230;-71
2023/03/14 12:55:45;;;;;;;0.20;0.20;;;12.70;99.90;;;;;;10307698;28;20290;-71
2023/03/14 13:00:54;;;;;;;0.10;0.10;;;12.80;99.90;;;;;;10306526;28;20232;-72
2023/03/14 13:05:58;;;;;;;0.10;0.10;;;12.80;99.90;;;;;;10310309;28;20222;-71
2023/03/14 13:11:01;;;;;;;0.10;0.10;;;12.60;99.90;;;;;;10304926;28;20222;-71
2023/03/14 13:16:04;;;;;;;0.10;0.10;;;12.30;99.90;;;;;;10308337;28;20269;-71
2023/03/14 13:21:19;;;;;;;0.40;0.27;;;11.90;99.90;;;;;;10308666;28;20232;-70
2023/03/14 13:26:33;;;;;;;1.00;0.27;;;11.30;99.90;;;;;;10317763;28;20256;-70
2023/03/14 13:31:34;;;;;;;0.60;0.30;;;10.80;99.90;;;;;;10310165;28;20264;-71
2023/03/14 13:36:36;;;;;;;1.40;0.50;;;10.30;99.90;;;;;;10312076;28;20748;-71
2023/03/14 13:41:36;;;;;;;1.47;0.30;;;10.20;99.90;;;;;;10313191;28;20693;-71
2023/03/14 13:46:38;;;;;;;2.00;0.57;;;10.20;99.90;;;;;;10315208;28;20226;-70
2023/03/14 13:51:40;;;;;;;0.40;0.40;;;10.40;99.90;;;;;;10313517;28;20593;-70
2023/03/14 13:56:40;;;;;;;0.63;0.40;;;10.50;99.90;;;;;;10314726;28;20236;-70
2023/03/14 14:01:41;;;;;;;1.13;0.60;;;10.70;99.90;;;;;;10314306;28;20256;-70
2023/03/14 14:06:53;;;;;;;1.07;0.70;;;10.80;99.90;;;;;;10330219;28;20289;-71
2023/03/14 14:12:10;;;;;;;0.93;0.80;;;10.80;99.90;;;;;;10313682;28;20221;-71
2023/03/14 14:17:19;;;;;;;2.47;0.70;;;10.80;99.90;;;;;;10316100;28;20650;-71
2023/03/14 14:22:20;;;;;;;0.40;0.40;;;11.30;99.90;;;;;;10316347;28;20301;-71
2023/03/14 14:27:40;;;;;;;0.30;0.30;;;11.70;99.90;;;;;;10315885;28;20487;-70
2023/03/14 14:32:45;;;;;;;0.30;0.30;;;12.00;99.90;;;;;;10315311;28;20218;-70
2023/03/14 14:37:46;;;;;;;1.03;0.50;;;11.90;99.90;;;;;;10329708;28;20227;-71
2023/03/14 14:42:47;;;;;;;0.73;0.57;;;11.90;99.90;;;;;;10312111;28;20222;-71
2023/03/14 14:48:10;;;;;;;1.57;0.60;;;11.80;99.90;;;;;;10311055;28;20747;-70
2023/03/14 14:53:29;;;;;;;1.90;0.50;;;11.60;99.90;;;;;;10314315;28;20271;-70
2023/03/14 14:58:39;;;;;;;0.97;0.70;;;11.30;99.90;;;;;;10306954;28;20236;-71
2023/03/14 15:03:42;;;;;;;0.83;0.70;;;11.10;99.90;;;;;;10310780;28;20287;-71
2023/03/14 15:08:45;;;;;;;2.00;1.00;;;10.70;99.90;;;;;;10310767;28;20673;-71
2023/03/14 15:13:45;;;;;;;2.60;1.30;;;10.50;99.90;;;;;;10310590;28;20261;-70
2023/03/14 15:18:57;;;;;;;2.83;1.00;;;10.50;99.90;;;;;;10311046;28;20223;-71
2023/03/14 15:23:58;;;;;;;3.43;1.00;;;10.40;99.90;;;;;;10311503;28;20230;-70
2023/03/14 15:28:58;;;;;;;13.33;1.40;;;10.40;99.90;;;;;;10320140;28;20225;-70
2023/03/14 15:33:59;;;;;;;2.10;0.70;;;10.30;99.90;;;;;;10316350;28;20213;-71
2023/03/14 15:39:00;;;;;;;4.47;1.57;;;10.30;99.90;;;;;;10317401;28;20230;-71
2023/03/14 15:44:00;;;;;;;2.07;0.67;;;10.20;99.90;;;;;;10313236;28;20230;-71
2023/03/14 15:49:01;;;;;;;1.83;0.60;;;10.10;99.90;;;;;;10311270;28;20226;-71
2023/03/14 15:54:02;;;;;;;3.20;0.60;;;10.00;99.90;;;;;;10307389;28;20217;-71
2023/03/14 15:59:02;;;;;;;8.30;1.10;;;9.90;99.90;;;;;;10320529;28;20674;-70
2023/03/14 16:04:03;;;;;;;2.83;0.67;;;10.00;99.90;;;;;;10320508;28;20213;-71
2023/03/14 16:09:04;;;;;;;2.40;0.80;;;10.30;99.90;;;;;;10306319;28;20900;-71
2023/03/14 16:14:04;;;;;;;0.90;0.50;;;10.30;99.90;;;;;;10312093;28;20639;-71
2023/03/14 16:19:07;;;;;;;7.93;0.83;;;10.30;99.90;;;;;;10316229;28;20221;-71
2023/03/14 16:24:07;;;;;;;3.93;0.77;;;10.20;99.90;;;;;;10305478;28;20246;-71
2023/03/14 16:29:08;;;;;;;1.93;0.83;;;10.00;99.90;;;;;;10312982;28;20308;-70
2023/03/14 16:34:09;;;;;;;3.03;0.60;;;9.80;99.90;;;;;;10312791;28;20210;-70
2023/03/14 16:39:09;;;;;;;2.90;0.97;;;9.50;99.90;;;;;;10313347;28;20206;-70
2023/03/14 16:44:10;;;;;;;0.77;0.70;;;9.20;99.90;;;;;;10312258;28;20224;-71
2023/03/14 16:49:10;;;;;;;0.80;0.70;;;9.00;99.90;;;;;;10304094;28;20252;-70
2023/03/14 16:54:11;;;;;;;2.57;1.07;;;8.90;99.90;;;;;;10310304;28;20640;-70
2023/03/14 16:59:12;;;;;;;3.80;0.80;;;8.70;99.90;;;;;;10303289;28;20253;-71
2023/03/14 17:04:15;;;;;;;1.53;0.70;;;8.50;99.90;;;;;;10302725;28;20300;-70
2023/03/14 17:09:16;;;;;;;0.70;0.60;;;8.40;99.90;;;;;;10302525;28;20226;-71
2023/03/14 17:14:16;;;;;;;3.70;1.00;;;8.20;99.90;;;;;;10308481;28;20223;-71
2023/03/14 17:19:17;;;;;;;1.00;0.60;;;8.20;99.90;;;;;;10301031;28;20265;-70
2023/03/14 17:24:18;;;;;;;0.93;0.70;;;8.00;99.90;;;;;;10309599;28;20221;-70
2023/03/14 17:29:19;;;;;;;0.30;0.30;;;7.90;99.90;;;;;;10324481;28;20262;-71
2023/03/14 17:34:19;;;;;;;3.07;0.50;;;7.80;99.90;;;;;;10334589;28;20296;-71
2023/03/14 17:39:20;;;;;;;0.43;0.43;;;7.80;99.90;;;;;;10328739;28;20240;-72
2023/03/14 17:44:21;;;;;;;0.43;0.30;;;7.80;99.90;;;;;;10333517;28;20218;-72
2023/03/14 17:49:21;;;;;;;0.30;0.27;;;7.70;99.90;;;;;;10335213;28;20255;-70
2023/03/14 17:54:22;;;;;;;0.70;0.47;;;7.60;99.90;;;;;;10322381;28;20317;-71
2023/03/14 17:59:22;;;;;;;0.63;0.40;;;7.50;99.90;;;;;;10325763;28;20222;-72
2023/03/14 18:04:23;;;;;;;0.37;0.30;;;7.50;99.90;;;;;;10321946;28;20230;-72
2023/03/14 18:09:24;;;;;;;0.60;0.57;;;7.50;99.90;;;;;;10336924;28;20608;-70
2023/03/14 18:14:24;;;;;;;0.57;0.57;;;7.50;99.90;;;;;;10333152;28;20601;-72
2023/03/14 18:19:25;;;;;;;0.30;0.20;;;7.50;99.90;;;;;;10340690;28;20227;-72
2023/03/14 18:24:25;;;;;;;0.73;0.63;;;7.50;99.90;;;;;;10335945;28;20295;-71
2023/03/14 18:29:26;;;;;;;3.43;2.47;;;7.50;99.90;;;;;;10323525;28;20226;-71
2023/03/14 18:34:27;;;;;;;0.53;0.40;;;7.40;99.90;;;;;;10332912;28;20219;-71
2023/03/14 18:39:28;;;;;;;0.70;0.67;;;7.30;99.90;;;;;;10318923;28;20233;-71
2023/03/14 18:44:28;;;;;;;1.87;0.80;;;7.20;99.90;;;;;;10332019;28;20588;-72
2023/03/14 18:49:29;;;;;;;1.47;1.30;;;7.10;99.90;;;;;;10315555;28;20226;-72
2023/03/14 18:54:29;;;;;;;5.70;1.30;;;6.90;99.90;;;;;;10315539;28;20222;-70
2023/03/14 18:59:30;;;;;;;2.17;1.20;;;6.80;99.90;;;;;;10309869;28;20335;-71
2023/03/14 19:04:30;;;;;;;2.13;1.27;;;6.80;99.90;;;;;;10321061;28;21004;-72
2023/03/14 19:09:31;;;;;;;5.37;2.13;;;6.80;99.90;;;;;;10323545;28;20244;-71
2023/03/14 19:14:31;;;;;;;6.03;1.73;;;6.80;99.90;;;;;;10324403;28;20862;-70
2023/03/14 19:19:32;;;;;;;5.07;1.87;;;6.80;99.90;;;;;;10320867;28;20268;-69
2023/03/14 19:24:33;;;;;;;5.20;1.80;;;6.80;99.90;;;;;;10325507;28;20226;-71
2023/03/14 19:29:40;;;;;;;7.03;1.83;;;6.80;99.90;;;;;;10322171;28;20619;-71
2023/03/14 19:34:42;;;;;;;5.27;2.17;;;6.90;99.90;;;;;;10332976;28;20370;-71
2023/03/14 19:39:45;;;;;;;3.33;1.70;;;6.90;99.90;;;;;;10317504;28;20224;-72
2023/03/14 19:44:46;;;;;;;3.90;1.50;;;7.00;99.90;;;;;;10321959;28;20258;-70
2023/03/14 19:49:52;;;;;;;6.80;2.10;;;7.00;99.90;;;;;;10320234;28;20234;-69
2023/03/14 19:54:53;;;;;;;6.27;2.10;;;7.00;99.90;;;;;;10314347;28;20214;-72
2023/03/14 19:59:54;;;;;;;5.90;2.47;;;6.90;99.90;;;;;;10310210;28;20229;-69
2023/03/14 20:04:54;;;;;;;6.93;2.17;;;6.80;99.90;;;;;;10327281;28;20222;-70
2023/03/14 20:09:57;;;;;;;7.23;2.00;;;6.90;99.90;;;;;;10326546;28;20373;-69
2023/03/14 20:15:01;;;;;;;6.40;1.97;;;6.80;99.90;;;;;;10315940;28;20222;-70
2023/03/14 20:20:02;;;;;;;3.87;1.67;;;6.60;99.90;;;;;;10313003;28;20589;-70
2023/03/14 20:25:08;;;;;;;3.10;1.87;;;6.50;99.90;;;;;;10323389;28;20772;-71
2023/03/14 20:30:11;;;;;;;6.07;2.10;;;6.50;99.90;;;;;;10316872;28;20241;-73
2023/03/14 20:35:13;;;;;;;5.43;2.47;;;6.50;99.90;;;;;;10318797;28;20214;-71
2023/03/14 20:40:14;;;;;;;6.27;2.00;;;6.50;99.90;;;;;;10313058;28;20204;-74
2023/03/14 20:45:15;;;;;;;3.57;1.70;;;6.60;99.90;;;;;;10321976;28;20186;-71
2023/03/14 20:50:16;;;;;;;4.70;1.90;;;6.60;99.90;;;;;;10321203;28;20222;-69
2023/03/14 20:55:17;;;;;;;8.53;2.43;;;6.60;99.90;;;;;;10305323;28;20917;-72
2023/03/14 21:00:18;;;;;;;6.97;1.83;;;6.50;99.90;;;;;;10303349;28;20189;-71
2023/03/14 21:05:19;;;;;;;4.87;1.77;;;6.40;99.90;;;;;;10310145;28;20244;-71
2023/03/14 21:10:20;;;;;;;5.17;1.70;;;6.40;99.90;;;;;;10311385;28;20206;-71
2023/03/14 21:15:20;;;;;;;5.70;2.20;;;6.40;99.90;;;;;;10312073;28;20268;-73
2023/03/14 21:20:24;;;;;;;4.23;1.37;;;6.40;99.90;;;;;;10307035;28;20248;-74
2023/03/14 21:25:26;;;;;;;5.70;2.00;;;6.30;99.90;;;;;;10302672;28;20227;-73
2023/03/14 21:30:26;;;;;;;7.23;1.90;;;6.30;99.90;;;;;;10312259;28;20564;-72
2023/03/14 21:35:27;;;;;;;4.27;1.30;;;6.20;99.90;;;;;;10316784;28;20210;-71
2023/03/14 21:40:27;;;;;;;3.47;1.77;;;6.10;99.90;;;;;;10303510;28;20313;-74
2023/03/14 21:45:28;;;;;;;3.20;0.97;;;6.10;99.90;;;;;;10308247;28;20661;-74
2023/03/14 21:50:29;;;;;;;4.43;1.43;;;6.10;99.90;;;;;;10318365;28;20229;-73
2023/03/14 21:55:29;;;;;;;4.07;1.20;;;6.20;99.90;;;;;;10308893;28;20611;-75
2023/03/14 22:00:30;;;;;;;4.87;1.10;;;6.20;99.90;;;;;;10325680;28;20230;-73
2023/03/14 22:05:30;;;;;;;4.47;1.40;;;6.10;99.90;;;;;;10321289;28;20308;-73
2023/03/14 22:10:31;;;;;;;2.80;1.17;;;6.10;99.90;;;;;;10319809;28;20234;-71
2023/03/14 22:15:31;;;;;;;4.23;1.20;;;6.10;99.90;;;;;;10315088;28;20642;-72
2023/03/14 22:20:35;;;;;;;3.60;1.23;;;6.10;99.90;;;;;;10329350;28;20581;-72
2023/03/14 22:25:42;;;;;;;5.77;1.70;;;6.20;99.90;;;;;;10321738;28;20237;-72
2023/03/14 22:30:46;;;;;;;4.33;1.70;;;6.20;99.90;;;;;;10321288;28;20807;-71
2023/03/14 22:35:48;;;;;;;4.30;1.27;;;6.30;99.90;;;;;;10324628;28;20222;-71
2023/03/14 22:40:49;;;;;;;4.37;1.20;;;6.30;99.90;;;;;;10312148;28;20230;-76
2023/03/14 22:45:58;;;;;;;2.33;1.40;;;6.40;99.90;;;;;;10319068;28;20703;-73
2023/03/14 22:51:04;;;;;;;4.97;1.70;;;6.40;99.90;;;;;;10316834;28;20368;-73
2023/03/14 22:56:07;;;;;;;5.10;2.10;;;6.40;99.90;;;;;;10309709;28;20273;-74
2023/03/14 23:01:12;;;;;;;4.77;1.93;;;6.40;99.90;;;;;;10317015;28;20242;-76
2023/03/14 23:06:13;;;;;;;5.50;1.93;;;6.40;99.90;;;;;;10323916;28;20321;-74
2023/03/14 23:11:14;;;;;;;4.57;1.50;;;6.40;99.90;;;;;;10308317;28;20257;-75
2023/03/14 23:16:14;;;;;;;8.07;1.87;;;6.30;99.90;;;;;;10315516;28;20226;-69
2023/03/14 23:21:18;;;;;;;2.80;1.43;;;6.30;99.90;;;;;;10321123;28;20228;-70
2023/03/14 23:26:22;;;;;;;4.83;1.60;;;6.20;99.90;;;;;;10325197;28;20314;-70
2023/03/14 23:31:24;;;;;;;8.20;2.07;;;6.10;99.90;;;;;;10306176;28;20222;-69
2023/03/14 23:36:25;;;;;;;6.73;2.03;;;6.00;99.90;;;;;;10324175;28;20290;-70
2023/03/14 23:41:25;;;;;;;5.00;1.77;;;5.90;99.90;;;;;;10326598;28;20248;-72
2023/03/14 23:46:26;;;;;;;5.10;2.00;;;5.80;99.90;;;;;;10318836;28;20223;-72
2023/03/14 23:51:27;;;;;;;6.47;1.73;;;5.70;99.90;;;;;;10312640;28;20317;-74
2023/03/14 23:56:28;;;;;;;10.07;2.57;;;5.60;99.90;;;;;;10314496;28;20704;-73
